sensor_id;sensor_type;location;lat;lon;timestamp;P1;durP1;ratioP1;P2;durP2;ratioP2
77204;SDS011;67992;46.618;18.850;2023-03-24T00:02:21;5.13;;;3.53;;
77204;SDS011;67992;46.618;18.850;2023-03-24T00:04:52;5.32;;;3.50;;
77204;SDS011;67992;46.618;18.850;2023-03-24T00:07:22;5.10;;;3.70;;
77204;SDS011;67992;46.618;18.850;2023-03-24T00:09:57;4.30;;;3.30;;
77204;SDS011;67992;46.618;18.850;2023-03-24T00:12:24;5.43;;;3.50;;
77204;SDS011;67992;46.618;18.850;2023-03-24T00:15:03;5.00;;;3.22;;
77204;SDS011;67992;46.618;18.850;2023-03-24T00:17:31;4.45;;;3.45;;
77204;SDS011;67992;46.618;18.850;2023-03-24T00:20:05;4.90;;;3.45;;
77204;SDS011;67992;46.618;18.850;2023-03-24T00:22:39;5.78;;;3.55;;
77204;SDS011;67992;46.618;18.850;2023-03-24T00:25:17;5.72;;;3.80;;
77204;SDS011;67992;46.618;18.850;2023-03-24T00:27:46;6.82;;;3.67;;
77204;SDS011;67992;46.618;18.850;2023-03-24T00:30:16;4.97;;;3.40;;
77204;SDS011;67992;46.618;18.850;2023-03-24T00:32:46;4.45;;;3.45;;
77204;SDS011;67992;46.618;18.850;2023-03-24T00:35:13;5.32;;;3.55;;
77204;SDS011;67992;46.618;18.850;2023-03-24T00:37:42;4.22;;;3.30;;
77204;SDS011;67992;46.618;18.850;2023-03-24T00:40:15;5.43;;;3.45;;
77204;SDS011;67992;46.618;18.850;2023-03-24T00:42:49;4.80;;;3.50;;
77204;SDS011;67992;46.618;18.850;2023-03-24T00:45:21;6.13;;;3.70;;
77204;SDS011;67992;46.618;18.850;2023-03-24T00:47:50;5.45;;;3.60;;
77204;SDS011;67992;46.618;18.850;2023-03-24T00:50:22;5.38;;;3.92;;
77204;SDS011;67992;46.618;18.850;2023-03-24T00:52:50;4.70;;;3.67;;
77204;SDS011;67992;46.618;18.850;2023-03-24T00:55:17;5.07;;;3.50;;
77204;SDS011;67992;46.618;18.850;2023-03-24T00:57:45;6.55;;;4.28;;
77204;SDS011;67992;46.618;18.850;2023-03-24T01:00:16;6.07;;;3.97;;
77204;SDS011;67992;46.618;18.850;2023-03-24T01:02:48;5.28;;;3.95;;
77204;SDS011;67992;46.618;18.850;2023-03-24T01:05:21;5.15;;;3.90;;
77204;SDS011;67992;46.618;18.850;2023-03-24T01:07:48;6.40;;;4.30;;
77204;SDS011;67992;46.618;18.850;2023-03-24T01:10:24;5.88;;;4.00;;
77204;SDS011;67992;46.618;18.850;2023-03-24T01:12:54;5.80;;;3.75;;
77204;SDS011;67992;46.618;18.850;2023-03-24T01:15:25;6.20;;;3.95;;
77204;SDS011;67992;46.618;18.850;2023-03-24T01:17:54;4.93;;;3.83;;
77204;SDS011;67992;46.618;18.850;2023-03-24T01:20:20;6.47;;;3.90;;
77204;SDS011;67992;46.618;18.850;2023-03-24T01:23:01;5.10;;;4.15;;
77204;SDS011;67992;46.618;18.850;2023-03-24T01:25:31;5.30;;;3.53;;
77204;SDS011;67992;46.618;18.850;2023-03-24T01:28:01;6.45;;;3.42;;
77204;SDS011;67992;46.618;18.850;2023-03-24T01:30:28;5.47;;;4.03;;
77204;SDS011;67992;46.618;18.850;2023-03-24T01:35:23;5.88;;;3.70;;
77204;SDS011;67992;46.618;18.850;2023-03-24T01:37:53;5.28;;;3.70;;
77204;SDS011;67992;46.618;18.850;2023-03-24T01:40:22;4.72;;;3.72;;
77204;SDS011;67992;46.618;18.850;2023-03-24T01:42:54;6.50;;;4.22;;
77204;SDS011;67992;46.618;18.850;2023-03-24T01:48:08;6.30;;;4.03;;
77204;SDS011;67992;46.618;18.850;2023-03-24T01:50:41;6.10;;;3.40;;
77204;SDS011;67992;46.618;18.850;2023-03-24T01:53:10;5.93;;;3.88;;
77204;SDS011;67992;46.618;18.850;2023-03-24T01:55:44;6.20;;;4.00;;
77204;SDS011;67992;46.618;18.850;2023-03-24T01:58:34;6.35;;;3.92;;
77204;SDS011;67992;46.618;18.850;2023-03-24T02:01:11;5.53;;;3.78;;
77204;SDS011;67992;46.618;18.850;2023-03-24T02:03:43;5.25;;;3.97;;
77204;SDS011;67992;46.618;18.850;2023-03-24T02:06:13;7.50;;;4.15;;
77204;SDS011;67992;46.618;18.850;2023-03-24T02:08:47;5.90;;;4.10;;
77204;SDS011;67992;46.618;18.850;2023-03-24T02:11:19;4.80;;;3.80;;
77204;SDS011;67992;46.618;18.850;2023-03-24T02:13:50;5.82;;;4.03;;
77204;SDS011;67992;46.618;18.850;2023-03-24T02:16:25;6.10;;;3.90;;
77204;SDS011;67992;46.618;18.850;2023-03-24T02:18:59;5.75;;;3.88;;
77204;SDS011;67992;46.618;18.850;2023-03-24T02:21:46;4.93;;;3.90;;
77204;SDS011;67992;46.618;18.850;2023-03-24T02:27:20;5.60;;;3.80;;
77204;SDS011;67992;46.618;18.850;2023-03-24T02:30:17;6.00;;;4.05;;
77204;SDS011;67992;46.618;18.850;2023-03-24T02:40:56;5.55;;;3.92;;
77204;SDS011;67992;46.618;18.850;2023-03-24T02:46:32;5.38;;;4.00;;
77204;SDS011;67992;46.618;18.850;2023-03-24T02:51:38;4.82;;;3.78;;
77204;SDS011;67992;46.618;18.850;2023-03-24T03:02:06;5.15;;;3.88;;
77204;SDS011;67992;46.618;18.850;2023-03-24T03:04:44;5.22;;;4.00;;
77204;SDS011;67992;46.618;18.850;2023-03-24T03:07:23;6.00;;;3.95;;
77204;SDS011;67992;46.618;18.850;2023-03-24T03:09:54;6.40;;;4.13;;
77204;SDS011;67992;46.618;18.850;2023-03-24T03:12:28;6.25;;;3.85;;
77204;SDS011;67992;46.618;18.850;2023-03-24T03:15:13;5.55;;;3.92;;
77204;SDS011;67992;46.618;18.850;2023-03-24T03:17:45;6.65;;;4.32;;
77204;SDS011;67992;46.618;18.850;2023-03-24T03:20:21;4.75;;;3.83;;
77204;SDS011;67992;46.618;18.850;2023-03-24T03:25:36;6.00;;;4.22;;
77204;SDS011;67992;46.618;18.850;2023-03-24T03:28:14;5.30;;;3.80;;
77204;SDS011;67992;46.618;18.850;2023-03-24T03:30:50;5.00;;;3.97;;
77204;SDS011;67992;46.618;18.850;2023-03-24T03:33:47;7.05;;;4.57;;
77204;SDS011;67992;46.618;18.850;2023-03-24T03:36:35;5.82;;;3.70;;
77204;SDS011;67992;46.618;18.850;2023-03-24T03:39:22;5.78;;;4.00;;
77204;SDS011;67992;46.618;18.850;2023-03-24T03:41:54;5.05;;;3.88;;
77204;SDS011;67992;46.618;18.850;2023-03-24T03:44:23;6.18;;;4.30;;
77204;SDS011;67992;46.618;18.850;2023-03-24T03:46:49;6.53;;;4.20;;
77204;SDS011;67992;46.618;18.850;2023-03-24T03:49:15;5.72;;;4.20;;
77204;SDS011;67992;46.618;18.850;2023-03-24T03:51:44;6.57;;;4.00;;
77204;SDS011;67992;46.618;18.850;2023-03-24T03:54:14;5.95;;;3.75;;
77204;SDS011;67992;46.618;18.850;2023-03-24T03:56:41;6.00;;;4.25;;
77204;SDS011;67992;46.618;18.850;2023-03-24T03:59:07;6.43;;;4.00;;
77204;SDS011;67992;46.618;18.850;2023-03-24T04:01:50;6.88;;;4.25;;
77204;SDS011;67992;46.618;18.850;2023-03-24T04:04:30;5.28;;;3.97;;
77204;SDS011;67992;46.618;18.850;2023-03-24T04:15:35;7.30;;;3.97;;
77204;SDS011;67992;46.618;18.850;2023-03-24T04:27:04;5.05;;;3.75;;
77204;SDS011;67992;46.618;18.850;2023-03-24T04:34:49;5.78;;;3.63;;
77204;SDS011;67992;46.618;18.850;2023-03-24T04:37:26;4.70;;;3.40;;
77204;SDS011;67992;46.618;18.850;2023-03-24T04:39:58;5.90;;;3.95;;
77204;SDS011;67992;46.618;18.850;2023-03-24T04:42:35;7.18;;;4.10;;
77204;SDS011;67992;46.618;18.850;2023-03-24T04:45:11;6.40;;;4.10;;
77204;SDS011;67992;46.618;18.850;2023-03-24T04:47:46;6.20;;;4.10;;
77204;SDS011;67992;46.618;18.850;2023-03-24T04:50:49;6.45;;;4.30;;
77204;SDS011;67992;46.618;18.850;2023-03-24T04:53:18;6.50;;;4.38;;
77204;SDS011;67992;46.618;18.850;2023-03-24T04:58:51;6.85;;;4.57;;
77204;SDS011;67992;46.618;18.850;2023-03-24T05:01:24;5.95;;;4.20;;
77204;SDS011;67992;46.618;18.850;2023-03-24T05:03:58;5.55;;;4.10;;
77204;SDS011;67992;46.618;18.850;2023-03-24T05:06:25;6.47;;;3.97;;
77204;SDS011;67992;46.618;18.850;2023-03-24T05:08:51;8.50;;;4.40;;
77204;SDS011;67992;46.618;18.850;2023-03-24T05:11:23;5.88;;;4.63;;
77204;SDS011;67992;46.618;18.850;2023-03-24T05:13:55;5.53;;;4.03;;
77204;SDS011;67992;46.618;18.850;2023-03-24T05:16:23;5.85;;;4.07;;
77204;SDS011;67992;46.618;18.850;2023-03-24T05:18:58;5.97;;;4.30;;
77204;SDS011;67992;46.618;18.850;2023-03-24T05:21:27;5.80;;;4.30;;
77204;SDS011;67992;46.618;18.850;2023-03-24T05:23:59;5.75;;;4.10;;
77204;SDS011;67992;46.618;18.850;2023-03-24T05:26:27;6.45;;;4.40;;
77204;SDS011;67992;46.618;18.850;2023-03-24T05:29:05;6.40;;;4.22;;
77204;SDS011;67992;46.618;18.850;2023-03-24T05:31:31;6.80;;;4.50;;
77204;SDS011;67992;46.618;18.850;2023-03-24T05:33:59;5.57;;;4.05;;
77204;SDS011;67992;46.618;18.850;2023-03-24T05:36:28;5.80;;;4.63;;
77204;SDS011;67992;46.618;18.850;2023-03-24T05:38:54;4.90;;;3.72;;
77204;SDS011;67992;46.618;18.850;2023-03-24T05:41:20;7.57;;;4.20;;
77204;SDS011;67992;46.618;18.850;2023-03-24T05:43:45;6.38;;;4.47;;
77204;SDS011;67992;46.618;18.850;2023-03-24T05:46:11;6.03;;;4.22;;
77204;SDS011;67992;46.618;18.850;2023-03-24T05:48:40;6.93;;;4.90;;
77204;SDS011;67992;46.618;18.850;2023-03-24T05:51:05;6.55;;;4.40;;
77204;SDS011;67992;46.618;18.850;2023-03-24T05:53:31;8.23;;;5.10;;
77204;SDS011;67992;46.618;18.850;2023-03-24T05:56:00;7.88;;;4.25;;
77204;SDS011;67992;46.618;18.850;2023-03-24T05:58:26;5.72;;;4.15;;
77204;SDS011;67992;46.618;18.850;2023-03-24T06:00:51;6.53;;;4.60;;
77204;SDS011;67992;46.618;18.850;2023-03-24T06:03:18;6.40;;;4.20;;
77204;SDS011;67992;46.618;18.850;2023-03-24T06:05:44;7.10;;;4.50;;
77204;SDS011;67992;46.618;18.850;2023-03-24T06:08:11;6.43;;;4.38;;
77204;SDS011;67992;46.618;18.850;2023-03-24T06:10:37;6.72;;;4.28;;
77204;SDS011;67992;46.618;18.850;2023-03-24T06:13:02;6.53;;;4.40;;
77204;SDS011;67992;46.618;18.850;2023-03-24T06:15:28;7.45;;;4.65;;
77204;SDS011;67992;46.618;18.850;2023-03-24T06:17:54;6.72;;;4.70;;
77204;SDS011;67992;46.618;18.850;2023-03-24T06:20:20;5.25;;;3.95;;
77204;SDS011;67992;46.618;18.850;2023-03-24T06:22:46;8.05;;;4.50;;
77204;SDS011;67992;46.618;18.850;2023-03-24T06:25:16;6.47;;;4.05;;
77204;SDS011;67992;46.618;18.850;2023-03-24T06:27:44;11.98;;;5.00;;
77204;SDS011;67992;46.618;18.850;2023-03-24T06:30:13;11.88;;;6.82;;
77204;SDS011;67992;46.618;18.850;2023-03-24T06:32:40;17.65;;;6.75;;
77204;SDS011;67992;46.618;18.850;2023-03-24T06:35:11;12.85;;;7.57;;
77204;SDS011;67992;46.618;18.850;2023-03-24T06:37:40;15.02;;;8.10;;
77204;SDS011;67992;46.618;18.850;2023-03-24T06:40:07;11.88;;;7.68;;
77204;SDS011;67992;46.618;18.850;2023-03-24T06:42:40;11.90;;;7.45;;
77204;SDS011;67992;46.618;18.850;2023-03-24T06:45:08;10.43;;;6.95;;
77204;SDS011;67992;46.618;18.850;2023-03-24T06:47:34;11.60;;;7.30;;
77204;SDS011;67992;46.618;18.850;2023-03-24T06:50:03;12.65;;;6.90;;
77204;SDS011;67992;46.618;18.850;2023-03-24T06:52:31;11.63;;;6.60;;
77204;SDS011;67992;46.618;18.850;2023-03-24T06:54:59;10.30;;;6.60;;
77204;SDS011;67992;46.618;18.850;2023-03-24T06:57:34;11.18;;;6.72;;
77204;SDS011;67992;46.618;18.850;2023-03-24T07:00:03;11.00;;;6.40;;
77204;SDS011;67992;46.618;18.850;2023-03-24T07:02:35;8.35;;;6.07;;
77204;SDS011;67992;46.618;18.850;2023-03-24T07:05:04;8.52;;;5.78;;
77204;SDS011;67992;46.618;18.850;2023-03-24T07:07:34;7.45;;;5.43;;
77204;SDS011;67992;46.618;18.850;2023-03-24T07:10:08;7.13;;;5.40;;
77204;SDS011;67992;46.618;18.850;2023-03-24T07:12:34;8.45;;;5.72;;
77204;SDS011;67992;46.618;18.850;2023-03-24T07:15:04;10.77;;;6.00;;
77204;SDS011;67992;46.618;18.850;2023-03-24T07:17:33;8.07;;;5.10;;
77204;SDS011;67992;46.618;18.850;2023-03-24T07:20:00;6.82;;;5.10;;
77204;SDS011;67992;46.618;18.850;2023-03-24T07:22:32;8.00;;;5.40;;
77204;SDS011;67992;46.618;18.850;2023-03-24T07:25:04;7.07;;;5.00;;
77204;SDS011;67992;46.618;18.850;2023-03-24T07:27:38;7.65;;;5.00;;
77204;SDS011;67992;46.618;18.850;2023-03-24T07:30:08;6.50;;;4.65;;
77204;SDS011;67992;46.618;18.850;2023-03-24T07:32:36;6.97;;;5.13;;
77204;SDS011;67992;46.618;18.850;2023-03-24T07:35:07;6.65;;;4.82;;
77204;SDS011;67992;46.618;18.850;2023-03-24T07:37:37;6.35;;;4.82;;
77204;SDS011;67992;46.618;18.850;2023-03-24T07:40:04;7.32;;;4.50;;
77204;SDS011;67992;46.618;18.850;2023-03-24T07:42:37;7.28;;;5.15;;
77204;SDS011;67992;46.618;18.850;2023-03-24T07:45:13;6.63;;;4.85;;
77204;SDS011;67992;46.618;18.850;2023-03-24T07:47:47;7.50;;;4.45;;
77204;SDS011;67992;46.618;18.850;2023-03-24T07:50:18;5.97;;;4.25;;
77204;SDS011;67992;46.618;18.850;2023-03-24T07:52:47;6.47;;;4.47;;
77204;SDS011;67992;46.618;18.850;2023-03-24T07:55:20;5.30;;;4.43;;
77204;SDS011;67992;46.618;18.850;2023-03-24T07:57:53;5.47;;;4.15;;
77204;SDS011;67992;46.618;18.850;2023-03-24T08:00:19;6.85;;;4.53;;
77204;SDS011;67992;46.618;18.850;2023-03-24T08:02:49;6.53;;;4.45;;
77204;SDS011;67992;46.618;18.850;2023-03-24T08:05:16;7.53;;;4.63;;
77204;SDS011;67992;46.618;18.850;2023-03-24T08:07:47;5.90;;;4.18;;
77204;SDS011;67992;46.618;18.850;2023-03-24T08:10:27;7.18;;;4.50;;
77204;SDS011;67992;46.618;18.850;2023-03-24T08:12:54;6.40;;;4.35;;
77204;SDS011;67992;46.618;18.850;2023-03-24T08:15:26;5.50;;;3.90;;
77204;SDS011;67992;46.618;18.850;2023-03-24T08:17:52;6.75;;;4.10;;
77204;SDS011;67992;46.618;18.850;2023-03-24T08:20:21;5.32;;;4.10;;
77204;SDS011;67992;46.618;18.850;2023-03-24T08:22:51;5.13;;;4.10;;
77204;SDS011;67992;46.618;18.850;2023-03-24T08:25:18;5.85;;;4.20;;
77204;SDS011;67992;46.618;18.850;2023-03-24T08:27:45;5.30;;;3.83;;
77204;SDS011;67992;46.618;18.850;2023-03-24T08:30:19;5.22;;;4.05;;
77204;SDS011;67992;46.618;18.850;2023-03-24T08:32:49;4.85;;;3.70;;
77204;SDS011;67992;46.618;18.850;2023-03-24T08:35:20;5.18;;;3.75;;
77204;SDS011;67992;46.618;18.850;2023-03-24T08:37:57;6.30;;;4.00;;
77204;SDS011;67992;46.618;18.850;2023-03-24T08:40:30;5.22;;;4.10;;
77204;SDS011;67992;46.618;18.850;2023-03-24T08:43:00;4.88;;;3.72;;
77204;SDS011;67992;46.618;18.850;2023-03-24T08:45:28;5.15;;;3.70;;
77204;SDS011;67992;46.618;18.850;2023-03-24T08:47:57;5.22;;;3.88;;
77204;SDS011;67992;46.618;18.850;2023-03-24T08:50:25;5.40;;;3.72;;
77204;SDS011;67992;46.618;18.850;2023-03-24T08:52:58;6.60;;;4.32;;
77204;SDS011;67992;46.618;18.850;2023-03-24T08:55:26;5.32;;;3.60;;
77204;SDS011;67992;46.618;18.850;2023-03-24T08:57:59;4.53;;;3.70;;
77204;SDS011;67992;46.618;18.850;2023-03-24T09:00:31;5.07;;;3.40;;
77204;SDS011;67992;46.618;18.850;2023-03-24T09:02:59;4.25;;;3.38;;
77204;SDS011;67992;46.618;18.850;2023-03-24T09:05:25;4.97;;;3.25;;
77204;SDS011;67992;46.618;18.850;2023-03-24T09:07:51;4.35;;;3.20;;
77204;SDS011;67992;46.618;18.850;2023-03-24T09:10:17;4.38;;;3.42;;
77204;SDS011;67992;46.618;18.850;2023-03-24T09:12:46;4.45;;;3.47;;
77204;SDS011;67992;46.618;18.850;2023-03-24T09:15:15;4.70;;;3.65;;
77204;SDS011;67992;46.618;18.850;2023-03-24T09:17:44;4.50;;;3.35;;
77204;SDS011;67992;46.618;18.850;2023-03-24T09:20:13;4.10;;;3.28;;
77204;SDS011;67992;46.618;18.850;2023-03-24T09:22:43;5.03;;;3.13;;
77204;SDS011;67992;46.618;18.850;2023-03-24T09:25:11;4.15;;;3.10;;
77204;SDS011;67992;46.618;18.850;2023-03-24T09:27:44;4.50;;;3.10;;
77204;SDS011;67992;46.618;18.850;2023-03-24T09:30:12;4.43;;;2.70;;
77204;SDS011;67992;46.618;18.850;2023-03-24T09:32:41;4.60;;;3.28;;
77204;SDS011;67992;46.618;18.850;2023-03-24T09:35:10;3.90;;;3.20;;
77204;SDS011;67992;46.618;18.850;2023-03-24T09:37:39;4.25;;;3.08;;
77204;SDS011;67992;46.618;18.850;2023-03-24T09:40:19;3.50;;;3.00;;
77204;SDS011;67992;46.618;18.850;2023-03-24T09:45:20;4.18;;;2.80;;
77204;SDS011;67992;46.618;18.850;2023-03-24T09:47:49;4.22;;;3.10;;
77204;SDS011;67992;46.618;18.850;2023-03-24T09:50:26;4.43;;;3.28;;
77204;SDS011;67992;46.618;18.850;2023-03-24T09:52:58;4.20;;;3.00;;
77204;SDS011;67992;46.618;18.850;2023-03-24T09:55:49;5.35;;;3.20;;
77204;SDS011;67992;46.618;18.850;2023-03-24T09:58:15;3.95;;;2.92;;
77204;SDS011;67992;46.618;18.850;2023-03-24T10:00:50;3.17;;;2.58;;
77204;SDS011;67992;46.618;18.850;2023-03-24T10:03:21;3.65;;;2.70;;
77204;SDS011;67992;46.618;18.850;2023-03-24T10:06:03;4.03;;;2.75;;
77204;SDS011;67992;46.618;18.850;2023-03-24T10:08:39;3.50;;;2.80;;
77204;SDS011;67992;46.618;18.850;2023-03-24T10:30:28;3.65;;;2.75;;
77204;SDS011;67992;46.618;18.850;2023-03-24T10:32:57;3.67;;;2.50;;
77204;SDS011;67992;46.618;18.850;2023-03-24T10:35:26;3.22;;;2.50;;
77204;SDS011;67992;46.618;18.850;2023-03-24T10:37:57;3.38;;;2.58;;
77204;SDS011;67992;46.618;18.850;2023-03-24T10:40:26;4.88;;;3.13;;
77204;SDS011;67992;46.618;18.850;2023-03-24T10:42:55;3.65;;;2.35;;
77204;SDS011;67992;46.618;18.850;2023-03-24T10:45:31;2.72;;;2.22;;
77204;SDS011;67992;46.618;18.850;2023-03-24T10:48:06;3.28;;;2.47;;
77204;SDS011;67992;46.618;18.850;2023-03-24T10:50:35;3.30;;;2.40;;
77204;SDS011;67992;46.618;18.850;2023-03-24T10:53:21;5.40;;;2.58;;
77204;SDS011;67992;46.618;18.850;2023-03-24T10:55:46;4.03;;;2.95;;
77204;SDS011;67992;46.618;18.850;2023-03-24T11:01:19;2.88;;;2.30;;
77204;SDS011;67992;46.618;18.850;2023-03-24T11:06:22;3.33;;;2.40;;
77204;SDS011;67992;46.618;18.850;2023-03-24T11:08:47;3.50;;;2.47;;
77204;SDS011;67992;46.618;18.850;2023-03-24T11:11:49;3.60;;;2.22;;
77204;SDS011;67992;46.618;18.850;2023-03-24T11:14:24;3.65;;;2.50;;
77204;SDS011;67992;46.618;18.850;2023-03-24T11:16:54;3.63;;;2.67;;
77204;SDS011;67992;46.618;18.850;2023-03-24T11:19:34;3.13;;;2.13;;
77204;SDS011;67992;46.618;18.850;2023-03-24T11:22:01;3.05;;;2.20;;
77204;SDS011;67992;46.618;18.850;2023-03-24T11:24:29;3.45;;;2.15;;
77204;SDS011;67992;46.618;18.850;2023-03-24T11:26:57;3.70;;;2.28;;
77204;SDS011;67992;46.618;18.850;2023-03-24T11:29:26;3.80;;;2.50;;
77204;SDS011;67992;46.618;18.850;2023-03-24T11:31:55;2.80;;;2.13;;
77204;SDS011;67992;46.618;18.850;2023-03-24T11:34:34;4.00;;;2.55;;
77204;SDS011;67992;46.618;18.850;2023-03-24T11:37:18;2.97;;;2.40;;
77204;SDS011;67992;46.618;18.850;2023-03-24T11:42:41;3.20;;;2.20;;
77204;SDS011;67992;46.618;18.850;2023-03-24T11:45:29;3.05;;;2.10;;
77204;SDS011;67992;46.618;18.850;2023-03-24T11:48:22;2.92;;;1.98;;
77204;SDS011;67992;46.618;18.850;2023-03-24T11:51:24;4.18;;;2.22;;
77204;SDS011;67992;46.618;18.850;2023-03-24T11:54:00;3.55;;;2.20;;
77204;SDS011;67992;46.618;18.850;2023-03-24T11:56:42;3.13;;;2.10;;
77204;SDS011;67992;46.618;18.850;2023-03-24T12:10:59;3.42;;;2.10;;
77204;SDS011;67992;46.618;18.850;2023-03-24T12:13:38;3.90;;;2.10;;
77204;SDS011;67992;46.618;18.850;2023-03-24T12:22:05;2.70;;;1.92;;
77204;SDS011;67992;46.618;18.850;2023-03-24T12:30:58;2.80;;;1.88;;
77204;SDS011;67992;46.618;18.850;2023-03-24T12:33:52;2.88;;;2.00;;
77204;SDS011;67992;46.618;18.850;2023-03-24T12:36:36;3.25;;;2.05;;
77204;SDS011;67992;46.618;18.850;2023-03-24T12:39:29;2.70;;;1.95;;
77204;SDS011;67992;46.618;18.850;2023-03-24T12:42:04;2.55;;;1.90;;
77204;SDS011;67992;46.618;18.850;2023-03-24T12:55:41;3.25;;;2.20;;
77204;SDS011;67992;46.618;18.850;2023-03-24T13:04:22;2.63;;;1.95;;
77204;SDS011;67992;46.618;18.850;2023-03-24T13:07:09;2.72;;;2.00;;
77204;SDS011;67992;46.618;18.850;2023-03-24T13:12:12;2.50;;;1.80;;
77204;SDS011;67992;46.618;18.850;2023-03-24T13:17:35;3.00;;;1.83;;
77204;SDS011;67992;46.618;18.850;2023-03-24T13:20:24;2.58;;;1.67;;
77204;SDS011;67992;46.618;18.850;2023-03-24T13:22:54;2.38;;;1.80;;
77204;SDS011;67992;46.618;18.850;2023-03-24T13:25:36;2.65;;;1.95;;
77204;SDS011;67992;46.618;18.850;2023-03-24T13:28:20;2.10;;;1.60;;
77204;SDS011;67992;46.618;18.850;2023-03-24T13:30:50;3.15;;;1.73;;
77204;SDS011;67992;46.618;18.850;2023-03-24T13:38:50;2.70;;;1.90;;
77204;SDS011;67992;46.618;18.850;2023-03-24T13:41:20;2.70;;;1.90;;
77204;SDS011;67992;46.618;18.850;2023-03-24T13:47:32;3.53;;;1.80;;
77204;SDS011;67992;46.618;18.850;2023-03-24T13:49:37;2.10;;;1.67;;
77204;SDS011;67992;46.618;18.850;2023-03-24T13:52:05;2.75;;;1.80;;
77204;SDS011;67992;46.618;18.850;2023-03-24T13:54:50;1.98;;;1.77;;
77204;SDS011;67992;46.618;18.850;2023-03-24T13:57:21;2.80;;;1.80;;
77204;SDS011;67992;46.618;18.850;2023-03-24T14:08:13;2.75;;;2.03;;
77204;SDS011;67992;46.618;18.850;2023-03-24T14:10:45;2.55;;;1.70;;
77204;SDS011;67992;46.618;18.850;2023-03-24T14:15:44;2.35;;;1.83;;
77204;SDS011;67992;46.618;18.850;2023-03-24T14:21:04;1.88;;;1.58;;
77204;SDS011;67992;46.618;18.850;2023-03-24T14:23:44;2.22;;;1.70;;
77204;SDS011;67992;46.618;18.850;2023-03-24T14:26:27;2.25;;;1.58;;
77204;SDS011;67992;46.618;18.850;2023-03-24T14:28:58;2.50;;;1.55;;
77204;SDS011;67992;46.618;18.850;2023-03-24T14:31:28;1.88;;;1.50;;
77204;SDS011;67992;46.618;18.850;2023-03-24T14:39:40;2.05;;;1.58;;
77204;SDS011;67992;46.618;18.850;2023-03-24T14:41:53;2.05;;;1.50;;
77204;SDS011;67992;46.618;18.850;2023-03-24T14:49:56;1.92;;;1.50;;
77204;SDS011;67992;46.618;18.850;2023-03-24T14:52:30;2.40;;;1.70;;
77204;SDS011;67992;46.618;18.850;2023-03-24T14:55:01;1.98;;;1.70;;
77204;SDS011;67992;46.618;18.850;2023-03-24T14:57:41;2.00;;;1.60;;
77204;SDS011;67992;46.618;18.850;2023-03-24T15:02:46;1.90;;;1.60;;
77204;SDS011;67992;46.618;18.850;2023-03-24T15:05:17;2.25;;;1.40;;
77204;SDS011;67992;46.618;18.850;2023-03-24T15:16:15;1.95;;;1.50;;
77204;SDS011;67992;46.618;18.850;2023-03-24T15:21:44;2.25;;;1.40;;
77204;SDS011;67992;46.618;18.850;2023-03-24T15:26:45;2.30;;;1.50;;
77204;SDS011;67992;46.618;18.850;2023-03-24T15:29:20;2.10;;;1.50;;
77204;SDS011;67992;46.618;18.850;2023-03-24T15:31:50;2.22;;;1.60;;
77204;SDS011;67992;46.618;18.850;2023-03-24T15:36:52;2.20;;;1.50;;
77204;SDS011;67992;46.618;18.850;2023-03-24T15:39:24;2.05;;;1.40;;
77204;SDS011;67992;46.618;18.850;2023-03-24T15:41:53;2.47;;;1.63;;
77204;SDS011;67992;46.618;18.850;2023-03-24T15:44:20;2.58;;;1.70;;
77204;SDS011;67992;46.618;18.850;2023-03-24T15:46:52;2.08;;;1.60;;
77204;SDS011;67992;46.618;18.850;2023-03-24T15:49:24;2.45;;;1.50;;
77204;SDS011;67992;46.618;18.850;2023-03-24T15:52:01;2.30;;;1.60;;
77204;SDS011;67992;46.618;18.850;2023-03-24T15:54:48;2.20;;;1.80;;
77204;SDS011;67992;46.618;18.850;2023-03-24T15:57:15;2.17;;;1.60;;
77204;SDS011;67992;46.618;18.850;2023-03-24T15:59:54;2.00;;;1.50;;
77204;SDS011;67992;46.618;18.850;2023-03-24T16:05:10;2.20;;;1.63;;
77204;SDS011;67992;46.618;18.850;2023-03-24T16:13:19;2.42;;;1.63;;
77204;SDS011;67992;46.618;18.850;2023-03-24T16:15:51;1.70;;;1.35;;
77204;SDS011;67992;46.618;18.850;2023-03-24T16:18:18;2.63;;;1.55;;
77204;SDS011;67992;46.618;18.850;2023-03-24T16:23:15;2.28;;;1.52;;
77204;SDS011;67992;46.618;18.850;2023-03-24T16:25:41;2.10;;;1.58;;
77204;SDS011;67992;46.618;18.850;2023-03-24T16:28:11;1.70;;;1.20;;
77204;SDS011;67992;46.618;18.850;2023-03-24T16:30:39;1.70;;;1.40;;
77204;SDS011;67992;46.618;18.850;2023-03-24T16:33:07;1.83;;;1.50;;
77204;SDS011;67992;46.618;18.850;2023-03-24T16:35:33;2.38;;;1.50;;
77204;SDS011;67992;46.618;18.850;2023-03-24T16:37:59;1.80;;;1.50;;
77204;SDS011;67992;46.618;18.850;2023-03-24T16:40:36;2.03;;;1.63;;
77204;SDS011;67992;46.618;18.850;2023-03-24T16:43:05;2.42;;;1.58;;
77204;SDS011;67992;46.618;18.850;2023-03-24T16:45:31;2.28;;;1.50;;
77204;SDS011;67992;46.618;18.850;2023-03-24T16:47:57;2.17;;;1.67;;
77204;SDS011;67992;46.618;18.850;2023-03-24T16:50:37;2.30;;;1.55;;
77204;SDS011;67992;46.618;18.850;2023-03-24T16:53:05;2.33;;;1.60;;
77204;SDS011;67992;46.618;18.850;2023-03-24T16:55:36;2.10;;;1.40;;
77204;SDS011;67992;46.618;18.850;2023-03-24T16:58:03;2.10;;;1.50;;
77204;SDS011;67992;46.618;18.850;2023-03-24T17:00:31;1.60;;;1.50;;
77204;SDS011;67992;46.618;18.850;2023-03-24T17:03:01;1.75;;;1.23;;
77204;SDS011;67992;46.618;18.850;2023-03-24T17:05:29;1.67;;;1.42;;
77204;SDS011;67992;46.618;18.850;2023-03-24T17:08:07;2.25;;;1.50;;
77204;SDS011;67992;46.618;18.850;2023-03-24T17:10:42;1.88;;;1.55;;
77204;SDS011;67992;46.618;18.850;2023-03-24T17:13:13;2.08;;;1.50;;
77204;SDS011;67992;46.618;18.850;2023-03-24T17:15:43;2.70;;;1.63;;
77204;SDS011;67992;46.618;18.850;2023-03-24T17:18:11;2.97;;;1.50;;
77204;SDS011;67992;46.618;18.850;2023-03-24T17:20:37;3.72;;;1.52;;
77204;SDS011;67992;46.618;18.850;2023-03-24T17:23:11;3.67;;;1.40;;
77204;SDS011;67992;46.618;18.850;2023-03-24T17:25:41;4.38;;;1.55;;
77204;SDS011;67992;46.618;18.850;2023-03-24T17:28:14;3.33;;;1.58;;
77204;SDS011;67992;46.618;18.850;2023-03-24T17:30:41;2.92;;;1.70;;
77204;SDS011;67992;46.618;18.850;2023-03-24T17:33:13;2.38;;;1.55;;
77204;SDS011;67992;46.618;18.850;2023-03-24T17:35:39;11.25;;;2.10;;
77204;SDS011;67992;46.618;18.850;2023-03-24T17:38:05;12.23;;;2.38;;
77204;SDS011;67992;46.618;18.850;2023-03-24T17:40:33;4.18;;;1.95;;
77204;SDS011;67992;46.618;18.850;2023-03-24T17:43:11;5.88;;;2.00;;
77204;SDS011;67992;46.618;18.850;2023-03-24T17:45:39;3.05;;;1.55;;
77204;SDS011;67992;46.618;18.850;2023-03-24T17:48:05;3.88;;;1.60;;
77204;SDS011;67992;46.618;18.850;2023-03-24T17:50:34;4.97;;;1.70;;
77204;SDS011;67992;46.618;18.850;2023-03-24T17:53:03;5.30;;;1.50;;
77204;SDS011;67992;46.618;18.850;2023-03-24T17:55:34;4.28;;;1.90;;
77204;SDS011;67992;46.618;18.850;2023-03-24T17:58:00;4.45;;;1.80;;
77204;SDS011;67992;46.618;18.850;2023-03-24T18:00:29;4.65;;;1.90;;
77204;SDS011;67992;46.618;18.850;2023-03-24T18:02:58;6.20;;;1.60;;
77204;SDS011;67992;46.618;18.850;2023-03-24T18:05:29;3.78;;;1.75;;
77204;SDS011;67992;46.618;18.850;2023-03-24T18:07:57;3.72;;;1.90;;
77204;SDS011;67992;46.618;18.850;2023-03-24T18:10:29;2.05;;;1.52;;
77204;SDS011;67992;46.618;18.850;2023-03-24T18:13:01;3.35;;;1.77;;
77204;SDS011;67992;46.618;18.850;2023-03-24T18:15:28;2.28;;;1.75;;
77204;SDS011;67992;46.618;18.850;2023-03-24T18:17:56;4.38;;;1.70;;
77204;SDS011;67992;46.618;18.850;2023-03-24T18:20:28;3.70;;;1.75;;